This is the latest recevied weather packets stored in our database for station/object OM6ABF-11. If no packets are shown the sender has not sent any weather packets the latest 10 day(s).
| Time | Temp. | Humidity | Pressure | Rain* | Wind** | Luminosity | Snow |
|---|---|---|---|---|---|---|---|
| 1778012521 | 13.89° C | 50% | 1011.5 hPa | - | - | - | - |
| 1778011622 | 13.89° C | 50% | 1011.4 hPa | - | - | - | - |
| 1778009823 | 15° C | 45% | 1011.5 hPa | - | - | - | - |
| 1778008924 | 16.67° C | 41% | 1011.4 hPa | - | - | - | - |
| 1778008025 | 17.22° C | 39% | 1011.2 hPa | - | - | - | - |
| 1778007126 | 17.78° C | 38% | 1011 hPa | - | - | - | - |
| 1778006225 | 17.78° C | 39% | 1010.8 hPa | - | - | - | - |
| 1778004426 | 18.33° C | 37% | 1010.7 hPa | - | - | - | - |
| 1778003528 | 18.89° C | 35% | 1010.6 hPa | - | - | - | - |
| 1778002629 | 19.44° C | 33% | 1010.6 hPa | - | - | - | - |
| 1778001730 | 20° C | 32% | 1010.6 hPa | - | - | - | - |
| 1778000831 | 21.11° C | 29% | 1010.6 hPa | - | - | - | - |
| 1777999932 | 20.56° C | 30% | 1010.8 hPa | - | - | - | - |
| 1777999460 | 21.11° C | 30% | 1010.8 hPa | - | - | - | - |
| 1777998560 | 21.67° C | 29% | 1010.8 hPa | - | - | - | - |
| 1777997661 | 22.22° C | 27% | 1010.8 hPa | - | - | - | - |
| 1777996761 | 22.22° C | 26% | 1010.9 hPa | - | - | - | - |
| 1777995862 | 22.78° C | 25% | 1011 hPa | - | - | - | - |
| 1777994963 | 22.78° C | 24% | 1010.9 hPa | - | - | - | - |
| 1777994063 | 22.78° C | 24% | 1011 hPa | - | - | - | - |
| 1777993163 | 23.33° C | 23% | 1011.2 hPa | - | - | - | - |
| 1777992263 | 22.22° C | 24% | 1011.2 hPa | - | - | - | - |
| 1777991364 | 24.44° C | 18% | 1011.2 hPa | - | - | - | - |
| 1777990463 | 23.33° C | 18% | 1011.4 hPa | - | - | - | - |
| 1777989564 | 24.44° C | 19% | 1011.4 hPa | - | - | - | - |
* Rain since midnight (hover to see other rain measurements)
** Current wind speed in m/s (hover to see current wind gust speed)